createdAt,value
2018-04-17T00:00:09.187Z,7.40
2018-04-17T00:02:36.654Z,10.13
2018-04-17T00:05:04.110Z,7.73
2018-04-17T00:07:31.655Z,5.60
2018-04-17T00:09:59.086Z,5.13
2018-04-17T00:12:26.583Z,5.47
2018-04-17T00:14:54.015Z,11.00
2018-04-17T00:17:21.451Z,7.67
2018-04-17T00:19:48.940Z,7.33
2018-04-17T00:22:16.411Z,12.03
2018-04-17T00:24:43.830Z,8.20
2018-04-17T00:27:11.310Z,10.30
2018-04-17T00:29:39.079Z,6.73
2018-04-17T00:32:06.534Z,6.13
2018-04-17T00:34:33.986Z,8.40
2018-04-17T00:37:01.434Z,12.00
2018-04-17T00:39:28.870Z,11.23
2018-04-17T00:41:56.363Z,15.33
2018-04-17T00:44:23.923Z,8.73
2018-04-17T00:46:51.372Z,12.70
2018-04-17T00:49:18.836Z,7.20
2018-04-17T00:51:46.287Z,10.17
2018-04-17T00:54:13.718Z,7.73
2018-04-17T00:56:41.161Z,10.47
2018-04-17T00:59:08.666Z,14.93
2018-04-17T01:01:36.114Z,6.87
2018-04-17T01:04:03.553Z,8.00
2018-04-17T01:06:30.982Z,9.90
2018-04-17T01:08:59.313Z,11.47
2018-04-17T01:11:26.816Z,10.40
2018-04-17T01:13:55.018Z,12.87
2018-04-17T01:16:22.461Z,13.50
2018-04-17T01:18:49.902Z,12.20
2018-04-17T01:21:18.130Z,10.47
2018-04-17T01:23:45.592Z,17.33
2018-04-17T01:26:13.084Z,15.50
2018-04-17T01:28:40.486Z,15.83
2018-04-17T01:31:07.938Z,10.10
2018-04-17T01:33:35.415Z,9.53
2018-04-17T01:36:02.857Z,12.17
2018-04-17T01:38:30.430Z,14.80
2018-04-17T01:40:57.887Z,9.50
2018-04-17T01:43:25.467Z,10.13
2018-04-17T01:45:52.891Z,9.80
2018-04-17T01:48:20.319Z,8.53
2018-04-17T01:50:47.762Z,10.57
2018-04-17T01:53:16.099Z,7.63
2018-04-17T01:55:43.554Z,8.33
2018-04-17T01:58:11.018Z,13.77
2018-04-17T02:00:38.565Z,13.00
2018-04-17T02:03:06.030Z,16.80
2018-04-17T02:05:33.485Z,9.10
2018-04-17T02:08:01.042Z,11.93
2018-04-17T02:10:28.910Z,15.50
2018-04-17T02:12:56.374Z,10.23
2018-04-17T02:15:23.926Z,14.77
2018-04-17T02:17:51.490Z,12.20
2018-04-17T02:20:18.923Z,12.60
2018-04-17T02:22:46.397Z,9.33
2018-04-17T02:25:13.867Z,16.90
2018-04-17T02:27:41.327Z,11.33
2018-04-17T02:30:08.878Z,10.23
2018-04-17T02:32:36.322Z,11.60
2018-04-17T02:35:03.788Z,10.63
2018-04-17T02:37:31.245Z,12.03
2018-04-17T02:39:58.703Z,10.23
2018-04-17T02:42:26.159Z,12.57
2018-04-17T02:44:53.619Z,14.50
2018-04-17T02:47:21.062Z,8.07
2018-04-17T02:49:48.722Z,12.83
2018-04-17T02:52:16.160Z,12.63
2018-04-17T02:54:43.675Z,19.33
2018-04-17T02:57:11.050Z,9.60
2018-04-17T02:59:39.284Z,12.53
2018-04-17T03:02:06.720Z,10.60
2018-04-17T03:04:34.191Z,11.23
2018-04-17T03:07:01.751Z,12.90
2018-04-17T03:09:29.306Z,12.43
2018-04-17T03:11:56.762Z,13.20
2018-04-17T03:14:24.534Z,7.17
2018-04-17T03:16:52.085Z,11.40
2018-04-17T03:19:19.539Z,8.70
2018-04-17T03:21:46.989Z,14.90
2018-04-17T03:24:14.450Z,9.00
2018-04-17T03:26:41.910Z,5.47
2018-04-17T03:29:09.371Z,12.10
2018-04-17T03:31:36.823Z,9.10
2018-04-17T03:34:04.271Z,10.90
2018-04-17T03:36:31.739Z,10.33
2018-04-17T03:38:59.302Z,12.00
2018-04-17T03:41:26.801Z,14.43
2018-04-17T03:43:54.986Z,9.33
2018-04-17T03:46:22.491Z,14.77
2018-04-17T03:48:49.952Z,10.77
2018-04-17T03:51:17.397Z,9.10
2018-04-17T03:53:44.855Z,10.17
2018-04-17T03:56:12.335Z,10.30
2018-04-17T03:58:39.810Z,11.30
2018-04-17T04:01:08.014Z,9.17
2018-04-17T04:03:35.454Z,10.70
2018-04-17T04:06:02.959Z,8.63
2018-04-17T04:08:30.406Z,9.93
2018-04-17T04:10:57.851Z,10.80
2018-04-17T04:13:25.330Z,13.93
2018-04-17T04:15:52.765Z,13.53
2018-04-17T04:18:32.031Z,7.60
2018-04-17T04:21:11.505Z,14.50
2018-04-17T04:23:51.719Z,8.93
2018-04-17T04:26:31.128Z,11.93
2018-04-17T04:28:58.616Z,8.70
2018-04-17T04:31:26.069Z,7.17
2018-04-17T04:33:53.498Z,10.63
2018-04-17T04:36:20.939Z,9.53
2018-04-17T04:38:48.438Z,8.47
2018-04-17T04:41:15.870Z,8.77
2018-04-17T04:43:43.318Z,7.33
2018-04-17T04:46:11.218Z,8.30
2018-04-17T04:48:38.662Z,11.73
2018-04-17T04:51:06.110Z,11.00
2018-04-17T04:53:33.830Z,9.87
2018-04-17T04:56:02.037Z,7.10
2018-04-17T04:58:29.787Z,12.47
2018-04-17T05:00:57.986Z,7.90
2018-04-17T05:03:25.474Z,9.10
2018-04-17T05:05:52.943Z,10.80
2018-04-17T05:08:20.481Z,10.63
2018-04-17T05:10:48.038Z,11.60
2018-04-17T05:13:15.482Z,10.90
2018-04-17T05:15:42.949Z,9.10
2018-04-17T05:18:11.033Z,9.50
2018-04-17T05:20:38.488Z,14.43
2018-04-17T05:23:06.046Z,10.90
2018-04-17T05:25:33.503Z,11.63
2018-04-17T05:28:00.961Z,9.70
2018-04-17T05:30:28.418Z,10.83
2018-04-17T05:32:55.858Z,10.47
2018-04-17T05:35:23.330Z,11.73
2018-04-17T05:37:50.787Z,11.30
2018-04-17T05:40:18.242Z,10.77
2018-04-17T05:42:45.693Z,10.60
2018-04-17T05:45:13.190Z,9.17
2018-04-17T05:47:41.394Z,11.70
2018-04-17T05:50:08.884Z,29.37
2018-04-17T05:52:36.350Z,10.63
2018-04-17T05:55:03.911Z,19.87
2018-04-17T05:57:31.458Z,13.13
2018-04-17T05:59:58.939Z,13.10
2018-04-17T06:02:26.386Z,13.03
2018-04-17T06:04:53.934Z,15.03
2018-04-17T06:07:21.391Z,16.63
2018-04-17T06:09:48.858Z,11.53
2018-04-17T06:12:17.308Z,17.57
2018-04-17T06:14:45.403Z,9.10
2018-04-17T06:17:12.970Z,13.40
2018-04-17T06:19:40.518Z,10.77
2018-04-17T06:22:07.951Z,17.33
2018-04-17T06:24:35.390Z,14.63
2018-04-17T06:27:02.885Z,14.73
2018-04-17T06:29:30.355Z,11.00
2018-04-17T06:31:57.814Z,13.20
2018-04-17T06:34:25.258Z,14.10
2018-04-17T06:36:53.127Z,14.40
2018-04-17T06:39:20.587Z,15.30
2018-04-17T06:41:48.299Z,22.27
2018-04-17T06:44:15.697Z,13.10
2018-04-17T06:46:43.166Z,16.30
2018-04-17T06:49:10.622Z,13.13
2018-04-17T06:51:38.059Z,11.90
2018-04-17T06:54:05.500Z,17.20
2018-04-17T06:56:32.934Z,10.23
2018-04-17T06:59:01.159Z,13.87
2018-04-17T07:01:28.592Z,13.33
2018-04-17T07:03:56.069Z,12.63
2018-04-17T07:06:23.511Z,14.40
2018-04-17T07:08:51.002Z,22.40
2018-04-17T07:11:18.463Z,11.17
2018-04-17T07:13:46.002Z,15.27
2018-04-17T07:16:13.447Z,18.37
2018-04-17T07:18:40.913Z,20.10
2018-04-17T07:21:08.353Z,12.93
2018-04-17T07:23:35.803Z,14.87
2018-04-17T07:26:03.242Z,13.90
2018-04-17T07:28:30.682Z,21.17
2018-04-17T07:30:58.931Z,16.13
2018-04-17T07:33:26.475Z,25.43
2018-04-17T07:35:53.924Z,18.40
2018-04-17T07:38:21.392Z,24.30
2018-04-17T07:40:48.833Z,33.57
2018-04-17T07:43:16.307Z,27.67
2018-04-17T07:45:43.773Z,23.20
2018-04-17T07:48:24.198Z,16.73
2018-04-17T07:50:51.679Z,15.90
2018-04-17T07:53:19.113Z,14.10
2018-04-17T07:55:46.638Z,19.10
2018-04-17T07:58:14.098Z,19.17
2018-04-17T08:00:42.301Z,21.77
2018-04-17T08:03:09.751Z,21.37
2018-04-17T08:05:37.242Z,18.10
2018-04-17T08:08:04.690Z,27.60
2018-04-17T08:10:32.154Z,24.10
2018-04-17T08:12:59.598Z,23.73
2018-04-17T08:15:27.065Z,21.10
2018-04-17T08:17:54.628Z,19.60
2018-04-17T08:20:22.086Z,20.40
2018-04-17T08:22:49.531Z,20.33
2018-04-17T08:25:16.978Z,23.17
2018-04-17T08:27:44.412Z,23.90
2018-04-17T08:30:11.862Z,20.03
2018-04-17T08:32:40.066Z,26.23
2018-04-17T08:35:07.509Z,21.83
2018-04-17T08:37:35.074Z,23.47
2018-04-17T08:40:02.559Z,24.40
2018-04-17T08:42:29.998Z,28.17
2018-04-17T08:44:57.478Z,23.20
2018-04-17T08:47:24.930Z,18.83
2018-04-17T08:49:52.495Z,24.27
2018-04-17T08:52:19.934Z,18.23
2018-04-17T08:54:47.377Z,18.50
2018-04-17T08:57:14.863Z,21.77
2018-04-17T08:59:42.318Z,24.40
2018-04-17T09:02:09.884Z,22.63
2018-04-17T09:04:37.326Z,18.57
2018-04-17T09:07:04.772Z,19.17
2018-04-17T09:09:32.222Z,20.47
2018-04-17T09:11:59.733Z,19.87
2018-04-17T09:14:27.162Z,21.67
2018-04-17T09:16:54.619Z,22.43
2018-04-17T09:19:22.174Z,20.80
2018-04-17T09:21:49.618Z,21.07
2018-04-17T09:24:17.085Z,22.47
2018-04-17T09:26:44.654Z,22.00
2018-04-17T09:29:12.110Z,21.43
2018-04-17T09:31:39.579Z,30.53
2018-04-17T09:34:07.032Z,28.83
2018-04-17T09:36:34.481Z,23.83
2018-04-17T09:39:01.943Z,21.77
2018-04-17T09:41:29.498Z,21.90
2018-04-17T09:43:56.957Z,24.33
2018-04-17T09:46:24.512Z,21.63
2018-04-17T09:48:52.573Z,21.03
2018-04-17T09:51:20.038Z,19.57
2018-04-17T09:53:47.482Z,18.73
2018-04-17T09:56:14.927Z,21.43
2018-04-17T09:58:42.377Z,23.63
2018-04-17T10:01:15.631Z,30.37
2018-04-17T10:03:43.078Z,21.33
2018-04-17T10:06:11.282Z,21.70
2018-04-17T10:08:38.786Z,18.20
2018-04-17T10:11:06.229Z,23.97
2018-04-17T10:13:33.711Z,18.67
2018-04-17T10:16:01.150Z,16.70
2018-04-17T10:18:28.612Z,19.30
2018-04-17T10:20:56.053Z,19.47
2018-04-17T10:23:23.495Z,19.07
2018-04-17T10:25:50.990Z,17.93
2018-04-17T10:28:18.648Z,17.43
2018-04-17T10:30:46.098Z,19.43
2018-04-17T10:33:13.540Z,13.23
2018-04-17T10:35:41.739Z,21.83
2018-04-17T10:38:09.198Z,24.50
2018-04-17T10:40:36.647Z,15.27
2018-04-17T10:43:04.090Z,12.80
2018-04-17T10:45:31.540Z,14.50
2018-04-17T10:47:59.022Z,13.40
2018-04-17T10:50:26.488Z,16.80
2018-04-17T10:52:53.930Z,22.20
2018-04-17T10:55:21.371Z,15.00
2018-04-17T10:57:48.821Z,17.47
2018-04-17T11:00:16.302Z,15.77
2018-04-17T11:02:43.771Z,7.30
2018-04-17T11:05:11.321Z,9.20
2018-04-17T11:07:38.760Z,9.80
2018-04-17T11:10:06.330Z,9.57
2018-04-17T11:12:33.767Z,11.33
2018-04-17T11:15:01.199Z,7.00
2018-04-17T11:17:29.411Z,7.40
2018-04-17T11:19:56.866Z,5.47
2018-04-17T11:22:24.340Z,7.30
2018-04-17T11:24:51.767Z,7.93
2018-04-17T11:27:19.211Z,8.83
2018-04-17T11:29:46.706Z,9.27
2018-04-17T11:32:14.150Z,6.97
2018-04-17T11:34:41.617Z,6.13
2018-04-17T11:37:09.023Z,8.00
2018-04-17T11:39:37.251Z,7.07
2018-04-17T11:42:04.697Z,11.20
2018-04-17T11:44:32.140Z,6.43
2018-04-17T11:46:59.570Z,5.33
2018-04-17T11:49:27.794Z,5.20
2018-04-17T11:51:55.235Z,5.90
2018-04-17T11:54:22.706Z,4.87
2018-04-17T11:56:50.166Z,5.97
2018-04-17T11:59:17.622Z,6.80
2018-04-17T12:01:45.078Z,5.00
2018-04-17T12:04:12.511Z,8.30
2018-04-17T12:06:39.951Z,8.27
2018-04-17T12:09:07.394Z,5.30
2018-04-17T12:11:35.606Z,4.77
2018-04-17T12:14:03.082Z,4.53
2018-04-17T12:16:30.549Z,7.30
2018-04-17T12:18:58.089Z,4.13
2018-04-17T12:21:25.534Z,5.70
2018-04-17T12:23:52.970Z,3.40
2018-04-17T12:26:20.462Z,7.20
2018-04-17T12:28:47.897Z,4.20
2018-04-17T12:31:15.380Z,5.03
2018-04-17T12:33:42.834Z,7.10
2018-04-17T12:36:10.270Z,5.37
2018-04-17T12:38:37.746Z,3.70
2018-04-17T12:41:05.208Z,5.07
2018-04-17T12:43:32.657Z,4.60
2018-04-17T12:46:00.126Z,7.27
2018-04-17T12:48:27.578Z,4.63
2018-04-17T12:50:55.039Z,4.40
2018-04-17T12:53:22.490Z,6.20
2018-04-17T12:55:49.950Z,3.90
2018-04-17T12:58:17.430Z,7.43
2018-04-17T13:00:44.970Z,7.47
2018-04-17T13:03:12.528Z,5.70
2018-04-17T13:05:40.086Z,5.27
2018-04-17T13:08:07.542Z,5.30
2018-04-17T13:10:35.002Z,6.53
2018-04-17T13:13:02.456Z,5.10
2018-04-17T13:15:29.907Z,7.30
2018-04-17T13:17:57.377Z,3.00
2018-04-17T13:20:24.833Z,5.23
2018-04-17T13:22:52.263Z,5.70
2018-04-17T13:25:19.712Z,7.10
2018-04-17T13:27:47.142Z,4.70
2018-04-17T13:30:16.087Z,8.03
2018-04-17T13:32:43.555Z,12.90
2018-04-17T13:35:10.990Z,8.63
2018-04-17T13:37:38.425Z,8.07
2018-04-17T13:40:05.914Z,8.20
2018-04-17T13:42:33.350Z,6.03
2018-04-17T13:45:00.794Z,12.07
2018-04-17T13:47:28.230Z,3.83
2018-04-17T13:49:56.457Z,5.53
2018-04-17T13:52:24.018Z,9.40
2018-04-17T13:54:52.090Z,10.60
2018-04-17T13:57:19.542Z,9.70
2018-04-17T13:59:46.975Z,9.90
2018-04-17T14:02:14.422Z,6.53
2018-04-17T14:04:41.914Z,3.60
2018-04-17T14:07:09.362Z,10.30
2018-04-17T14:09:36.794Z,8.57
2018-04-17T14:12:04.238Z,4.93
2018-04-17T14:14:31.743Z,7.27
2018-04-17T14:16:59.191Z,12.53
2018-04-17T14:19:26.633Z,11.10
2018-04-17T14:21:54.114Z,7.10
2018-04-17T14:24:21.559Z,5.10
2018-04-17T14:26:49.005Z,3.50
2018-04-17T14:29:16.437Z,6.00
2018-04-17T14:31:44.661Z,3.00
2018-04-17T14:34:12.110Z,4.50
2018-04-17T14:36:39.554Z,7.77
2018-04-17T14:39:07.030Z,4.00
2018-04-17T14:41:34.482Z,7.03
2018-04-17T14:44:02.038Z,4.30
2018-04-17T14:46:29.484Z,6.20
2018-04-17T14:48:56.918Z,11.57
2018-04-17T14:51:24.415Z,4.93
2018-04-17T14:53:51.847Z,8.17
2018-04-17T14:56:19.301Z,8.53
2018-04-17T14:58:46.750Z,2.53
2018-04-17T15:01:14.178Z,6.70
2018-04-17T15:03:42.418Z,4.83
2018-04-17T15:06:10.074Z,9.07
2018-04-17T15:08:37.511Z,7.40
2018-04-17T15:11:04.938Z,3.57
2018-04-17T15:13:33.149Z,4.60
2018-04-17T15:16:00.593Z,7.73
2018-04-17T15:18:28.026Z,5.10
2018-04-17T15:20:56.226Z,3.97
2018-04-17T15:23:23.661Z,3.67
2018-04-17T15:25:51.163Z,4.73
2018-04-17T15:28:18.624Z,7.37
2018-04-17T15:30:46.058Z,7.43
2018-04-17T15:33:13.500Z,3.83
2018-04-17T15:35:41.010Z,3.97
2018-04-17T15:38:08.559Z,4.20
2018-04-17T15:40:36.007Z,10.80
2018-04-17T15:43:03.455Z,5.30
2018-04-17T15:45:30.896Z,4.30
2018-04-17T15:47:58.387Z,3.37
2018-04-17T15:50:25.834Z,5.63
2018-04-17T15:52:53.290Z,5.87
2018-04-17T15:55:20.741Z,7.23
2018-04-17T15:57:48.190Z,8.23
2018-04-17T16:00:15.870Z,6.77
2018-04-17T16:02:43.309Z,9.83
2018-04-17T16:05:10.781Z,6.53
2018-04-17T16:07:38.242Z,3.53
2018-04-17T16:10:05.694Z,7.10
2018-04-17T16:12:33.154Z,3.80
2018-04-17T16:15:00.609Z,6.13
2018-04-17T16:17:28.063Z,10.27
2018-04-17T16:19:55.514Z,8.40
2018-04-17T16:22:22.963Z,4.97
2018-04-17T16:24:50.439Z,4.30
2018-04-17T16:27:17.893Z,3.77
2018-04-17T16:29:45.951Z,5.67
2018-04-17T16:32:13.419Z,4.90
2018-04-17T16:34:41.657Z,9.27
2018-04-17T16:37:09.098Z,4.10
2018-04-17T16:39:37.325Z,6.40
2018-04-17T16:42:04.770Z,6.60
2018-04-17T16:44:32.205Z,4.73
2018-04-17T16:46:59.694Z,4.17
2018-04-17T16:49:27.154Z,4.30
2018-04-17T16:51:54.605Z,4.13
2018-04-17T16:54:22.078Z,4.03
2018-04-17T16:56:49.506Z,4.27
2018-04-17T16:59:16.959Z,12.57
2018-04-17T17:01:44.439Z,17.23
2018-04-17T17:04:12.351Z,8.10
2018-04-17T17:06:40.588Z,8.70
2018-04-17T17:09:08.042Z,5.53
2018-04-17T17:11:35.484Z,5.17
2018-04-17T17:14:02.931Z,3.57
2018-04-17T17:16:30.411Z,3.97
2018-04-17T17:18:58.148Z,5.03
2018-04-17T17:21:25.639Z,8.03
2018-04-17T17:23:53.084Z,4.67
2018-04-17T17:26:20.509Z,5.00
2018-04-17T17:28:47.954Z,6.50
2018-04-17T17:31:16.168Z,4.80
2018-04-17T17:33:43.611Z,6.97
2018-04-17T17:36:11.055Z,3.63
2018-04-17T17:38:38.493Z,11.37
2018-04-17T17:41:06.693Z,5.83
2018-04-17T17:43:34.128Z,3.53
2018-04-17T17:46:02.333Z,8.53
2018-04-17T17:48:29.783Z,7.20
2018-04-17T17:50:57.202Z,7.43
2018-04-17T17:53:25.411Z,8.70
2018-04-17T17:55:52.834Z,4.10
2018-04-17T17:58:21.038Z,6.27
2018-04-17T18:00:48.497Z,11.40
2018-04-17T18:03:15.990Z,4.83
2018-04-17T18:05:43.433Z,8.67
2018-04-17T18:08:11.014Z,4.00
2018-04-17T18:10:38.457Z,15.33
2018-04-17T18:13:05.906Z,11.50
2018-04-17T18:15:33.342Z,10.63
2018-04-17T18:18:00.805Z,8.27
2018-04-17T18:20:28.237Z,28.90
2018-04-17T18:22:55.674Z,9.10
2018-04-17T18:25:23.874Z,4.97
2018-04-17T18:27:51.314Z,5.17
2018-04-17T18:30:19.517Z,3.80
2018-04-17T18:32:46.954Z,2.87
2018-04-17T18:35:14.392Z,4.23
2018-04-17T18:37:42.699Z,7.63
2018-04-17T18:40:10.130Z,5.30
2018-04-17T18:42:38.362Z,5.73
2018-04-17T18:45:05.806Z,4.83
2018-04-17T18:47:33.277Z,3.80
2018-04-17T18:50:00.847Z,6.60
2018-04-17T18:52:28.396Z,6.40
2018-04-17T18:54:55.846Z,6.40
2018-04-17T18:57:23.386Z,6.33
2018-04-17T18:59:50.806Z,3.87
2018-04-17T19:02:19.042Z,6.00
2018-04-17T19:04:46.471Z,6.80
2018-04-17T19:07:13.915Z,5.77
2018-04-17T19:09:41.375Z,6.47
2018-04-17T19:12:08.979Z,6.83
2018-04-17T19:14:36.418Z,5.47
2018-04-17T19:17:03.890Z,6.10
2018-04-17T19:19:31.338Z,3.07
2018-04-17T19:21:58.802Z,5.80
2018-04-17T19:24:26.242Z,4.90
2018-04-17T19:26:53.699Z,6.03
2018-04-17T19:29:21.153Z,3.97
2018-04-17T19:31:48.579Z,6.30
2018-04-17T19:34:16.010Z,2.23
2018-04-17T19:36:43.446Z,4.33
2018-04-17T19:39:10.939Z,3.70
2018-04-17T19:41:39.143Z,12.53
2018-04-17T19:44:06.579Z,6.03
2018-04-17T19:46:34.026Z,8.00
2018-04-17T19:49:02.250Z,4.03
2018-04-17T19:51:29.683Z,10.53
2018-04-17T19:53:57.181Z,6.07
2018-04-17T19:56:24.616Z,6.67
2018-04-17T19:58:52.053Z,4.60
2018-04-17T20:01:19.508Z,3.60
2018-04-17T20:03:47.073Z,2.83
2018-04-17T20:06:14.503Z,4.53
2018-04-17T20:08:42.700Z,3.03
2018-04-17T20:11:10.133Z,5.10
2018-04-17T20:13:38.469Z,6.10
2018-04-17T20:16:05.898Z,5.40
2018-04-17T20:18:33.332Z,4.27
2018-04-17T20:21:00.831Z,5.00
2018-04-17T20:23:28.341Z,5.43
2018-04-17T20:25:56.534Z,4.90
2018-04-17T20:28:23.961Z,6.87
2018-04-17T20:30:52.181Z,11.47
2018-04-17T20:33:19.627Z,7.03
2018-04-17T20:35:47.070Z,20.33
2018-04-17T20:38:14.499Z,9.60
2018-04-17T20:40:41.935Z,3.27
2018-04-17T20:43:09.369Z,3.33
2018-04-17T20:45:36.827Z,3.90
2018-04-17T20:48:04.272Z,10.60
2018-04-17T20:50:31.714Z,6.50
2018-04-17T20:52:59.210Z,2.67
2018-04-17T20:55:26.646Z,6.80
2018-04-17T20:57:54.083Z,4.73
2018-04-17T21:00:21.593Z,4.70
2018-04-17T21:02:49.014Z,13.93
2018-04-17T21:05:16.486Z,6.43
2018-04-17T21:07:43.957Z,5.57
2018-04-17T21:10:11.402Z,2.80
2018-04-17T21:12:38.859Z,2.90
2018-04-17T21:15:06.321Z,8.70
2018-04-17T21:17:33.765Z,6.23
2018-04-17T21:20:01.231Z,6.97
2018-04-17T21:22:28.688Z,5.40
2018-04-17T21:24:56.123Z,4.17
2018-04-17T21:27:23.550Z,3.40
2018-04-17T21:29:51.774Z,6.20
2018-04-17T21:32:19.217Z,5.80
2018-04-17T21:34:46.686Z,16.43
2018-04-17T21:37:14.350Z,8.00
2018-04-17T21:39:41.793Z,13.67
2018-04-17T21:42:09.238Z,6.60
2018-04-17T21:44:36.675Z,6.90
2018-04-17T21:47:04.178Z,11.53
2018-04-17T21:49:31.636Z,6.40
2018-04-17T21:51:59.066Z,4.60
2018-04-17T21:54:26.546Z,6.20
2018-04-17T21:56:53.983Z,2.77
2018-04-17T21:59:21.436Z,2.60
2018-04-17T22:01:48.917Z,8.83
2018-04-17T22:04:16.375Z,3.10
2018-04-17T22:06:43.826Z,3.57
2018-04-17T22:09:11.264Z,3.70
2018-04-17T22:11:38.706Z,8.17
2018-04-17T22:14:06.147Z,3.70
2018-04-17T22:16:34.474Z,4.87
2018-04-17T22:19:02.758Z,2.93
2018-04-17T22:21:30.196Z,5.90
2018-04-17T22:23:58.059Z,8.73
2018-04-17T22:26:25.510Z,3.60
2018-04-17T22:28:52.951Z,5.13
2018-04-17T22:31:21.055Z,2.90
2018-04-17T22:33:48.498Z,5.70
2018-04-17T22:36:15.954Z,3.97
2018-04-17T22:38:43.385Z,6.60
2018-04-17T22:41:10.816Z,9.27
2018-04-17T22:43:38.258Z,5.13
2018-04-17T22:46:05.694Z,5.20
2018-04-17T22:48:33.131Z,8.00
2018-04-17T22:51:00.571Z,7.03
2018-04-17T22:53:28.006Z,4.20
2018-04-17T22:55:55.442Z,6.53
2018-04-17T22:58:22.894Z,5.90
2018-04-17T23:00:50.318Z,6.60
2018-04-17T23:03:17.762Z,3.57
2018-04-17T23:05:45.258Z,5.87
2018-04-17T23:08:12.817Z,3.60
2018-04-17T23:10:40.275Z,7.87
2018-04-17T23:13:07.717Z,9.77
2018-04-17T23:15:35.159Z,4.10
2018-04-17T23:18:02.643Z,4.30
2018-04-17T23:20:30.079Z,3.47
2018-04-17T23:22:58.171Z,3.53
2018-04-17T23:25:25.627Z,4.10
2018-04-17T23:27:53.095Z,3.10
2018-04-17T23:30:20.526Z,3.17
2018-04-17T23:32:48.000Z,3.73
2018-04-17T23:35:15.430Z,6.13
2018-04-17T23:37:42.868Z,3.30
2018-04-17T23:40:10.466Z,6.50
2018-04-17T23:42:37.902Z,4.60
2018-04-17T23:45:05.388Z,2.70
2018-04-17T23:47:33.350Z,6.97
2018-04-17T23:50:00.874Z,15.70
2018-04-17T23:52:28.438Z,6.10
2018-04-17T23:54:55.884Z,3.20
2018-04-17T23:57:23.396Z,2.93
2018-04-17T23:59:50.846Z,2.70
